sensor_id;sensor_type;location;lat;lon;timestamp;P1;durP1;ratioP1;P2;durP2;ratioP2
69256;SDS011;56376;53.356;-1.748;2022-08-19T00:01:48;2.90;;;2.70;;
69256;SDS011;56376;53.356;-1.748;2022-08-19T00:04:16;3.35;;;2.90;;
69256;SDS011;56376;53.356;-1.748;2022-08-19T00:06:43;4.85;;;2.97;;
69256;SDS011;56376;53.356;-1.748;2022-08-19T00:09:11;5.00;;;3.33;;
69256;SDS011;56376;53.356;-1.748;2022-08-19T00:11:38;3.88;;;2.70;;
69256;SDS011;56376;53.356;-1.748;2022-08-19T00:14:05;8.38;;;3.00;;
69256;SDS011;56376;53.356;-1.748;2022-08-19T00:16:32;6.85;;;3.35;;
69256;SDS011;56376;53.356;-1.748;2022-08-19T00:18:57;4.95;;;3.15;;
69256;SDS011;56376;53.356;-1.748;2022-08-19T00:21:24;4.95;;;2.50;;
69256;SDS011;56376;53.356;-1.748;2022-08-19T00:23:51;10.43;;;3.60;;
69256;SDS011;56376;53.356;-1.748;2022-08-19T00:26:18;10.63;;;3.00;;
69256;SDS011;56376;53.356;-1.748;2022-08-19T00:28:44;6.75;;;3.10;;
69256;SDS011;56376;53.356;-1.748;2022-08-19T00:31:09;4.78;;;2.53;;
69256;SDS011;56376;53.356;-1.748;2022-08-19T00:33:35;7.82;;;2.85;;
69256;SDS011;56376;53.356;-1.748;2022-08-19T00:36:02;11.52;;;3.95;;
69256;SDS011;56376;53.356;-1.748;2022-08-19T00:38:31;9.88;;;3.20;;
69256;SDS011;56376;53.356;-1.748;2022-08-19T00:40:57;7.15;;;3.22;;
69256;SDS011;56376;53.356;-1.748;2022-08-19T00:43:24;10.48;;;3.47;;
69256;SDS011;56376;53.356;-1.748;2022-08-19T00:45:51;4.70;;;2.38;;
69256;SDS011;56376;53.356;-1.748;2022-08-19T00:48:17;7.95;;;3.38;;
69256;SDS011;56376;53.356;-1.748;2022-08-19T00:50:45;6.00;;;2.80;;
69256;SDS011;56376;53.356;-1.748;2022-08-19T00:53:13;13.57;;;3.10;;
69256;SDS011;56376;53.356;-1.748;2022-08-19T00:55:44;7.22;;;2.75;;
69256;SDS011;56376;53.356;-1.748;2022-08-19T00:58:12;6.30;;;2.50;;
69256;SDS011;56376;53.356;-1.748;2022-08-19T01:00:40;5.13;;;2.55;;
69256;SDS011;56376;53.356;-1.748;2022-08-19T01:03:07;6.88;;;2.90;;
69256;SDS011;56376;53.356;-1.748;2022-08-19T01:05:35;10.07;;;3.10;;
69256;SDS011;56376;53.356;-1.748;2022-08-19T01:08:03;9.48;;;3.05;;
69256;SDS011;56376;53.356;-1.748;2022-08-19T01:10:31;7.70;;;3.38;;
69256;SDS011;56376;53.356;-1.748;2022-08-19T01:13:01;6.55;;;2.60;;
69256;SDS011;56376;53.356;-1.748;2022-08-19T01:15:31;7.50;;;3.10;;
69256;SDS011;56376;53.356;-1.748;2022-08-19T01:18:00;6.82;;;2.90;;
69256;SDS011;56376;53.356;-1.748;2022-08-19T01:20:29;11.35;;;3.50;;
69256;SDS011;56376;53.356;-1.748;2022-08-19T01:22:56;8.68;;;2.83;;
69256;SDS011;56376;53.356;-1.748;2022-08-19T01:25:34;9.98;;;3.13;;
69256;SDS011;56376;53.356;-1.748;2022-08-19T01:28:15;5.28;;;2.78;;
69256;SDS011;56376;53.356;-1.748;2022-08-19T01:30:43;5.43;;;2.28;;
69256;SDS011;56376;53.356;-1.748;2022-08-19T01:33:09;4.55;;;2.53;;
69256;SDS011;56376;53.356;-1.748;2022-08-19T01:35:34;7.25;;;3.10;;
69256;SDS011;56376;53.356;-1.748;2022-08-19T01:38:01;6.95;;;2.42;;
69256;SDS011;56376;53.356;-1.748;2022-08-19T01:40:32;7.28;;;2.78;;
69256;SDS011;56376;53.356;-1.748;2022-08-19T01:42:59;5.25;;;2.40;;
69256;SDS011;56376;53.356;-1.748;2022-08-19T01:45:26;5.90;;;2.28;;
69256;SDS011;56376;53.356;-1.748;2022-08-19T01:47:53;5.25;;;2.40;;
69256;SDS011;56376;53.356;-1.748;2022-08-19T01:50:19;5.22;;;2.10;;
69256;SDS011;56376;53.356;-1.748;2022-08-19T01:52:44;5.65;;;2.38;;
69256;SDS011;56376;53.356;-1.748;2022-08-19T01:55:12;8.45;;;2.75;;
69256;SDS011;56376;53.356;-1.748;2022-08-19T01:57:41;7.38;;;2.90;;
69256;SDS011;56376;53.356;-1.748;2022-08-19T02:00:11;5.32;;;2.30;;
69256;SDS011;56376;53.356;-1.748;2022-08-19T02:02:40;4.00;;;2.13;;
69256;SDS011;56376;53.356;-1.748;2022-08-19T02:05:07;6.25;;;2.20;;
69256;SDS011;56376;53.356;-1.748;2022-08-19T02:07:33;2.80;;;1.80;;
69256;SDS011;56376;53.356;-1.748;2022-08-19T02:10:04;3.50;;;1.90;;
69256;SDS011;56376;53.356;-1.748;2022-08-19T02:12:32;7.78;;;3.03;;
69256;SDS011;56376;53.356;-1.748;2022-08-19T02:14:58;5.22;;;2.47;;
69256;SDS011;56376;53.356;-1.748;2022-08-19T02:17:24;7.25;;;3.10;;
69256;SDS011;56376;53.356;-1.748;2022-08-19T02:19:49;7.50;;;3.13;;
69256;SDS011;56376;53.356;-1.748;2022-08-19T02:22:15;6.28;;;2.50;;
69256;SDS011;56376;53.356;-1.748;2022-08-19T02:24:40;6.80;;;2.70;;
69256;SDS011;56376;53.356;-1.748;2022-08-19T02:27:06;4.85;;;2.13;;
69256;SDS011;56376;53.356;-1.748;2022-08-19T02:29:31;5.90;;;2.40;;
69256;SDS011;56376;53.356;-1.748;2022-08-19T02:31:57;6.10;;;2.15;;
69256;SDS011;56376;53.356;-1.748;2022-08-19T02:34:23;6.30;;;2.53;;
69256;SDS011;56376;53.356;-1.748;2022-08-19T02:36:50;6.68;;;2.20;;
69256;SDS011;56376;53.356;-1.748;2022-08-19T02:39:16;7.63;;;2.67;;
69256;SDS011;56376;53.356;-1.748;2022-08-19T02:41:42;7.95;;;3.53;;
69256;SDS011;56376;53.356;-1.748;2022-08-19T02:44:08;5.18;;;2.50;;
69256;SDS011;56376;53.356;-1.748;2022-08-19T02:46:33;8.05;;;2.83;;
69256;SDS011;56376;53.356;-1.748;2022-08-19T02:49:02;7.18;;;2.45;;
69256;SDS011;56376;53.356;-1.748;2022-08-19T02:51:37;6.85;;;2.13;;
69256;SDS011;56376;53.356;-1.748;2022-08-19T02:54:05;8.32;;;2.70;;
69256;SDS011;56376;53.356;-1.748;2022-08-19T02:56:34;8.40;;;3.35;;
69256;SDS011;56376;53.356;-1.748;2022-08-19T02:59:01;10.80;;;3.00;;
69256;SDS011;56376;53.356;-1.748;2022-08-19T03:01:29;7.70;;;2.83;;
69256;SDS011;56376;53.356;-1.748;2022-08-19T03:03:57;6.43;;;1.88;;
69256;SDS011;56376;53.356;-1.748;2022-08-19T03:06:24;8.63;;;2.60;;
69256;SDS011;56376;53.356;-1.748;2022-08-19T03:08:50;8.52;;;2.85;;
69256;SDS011;56376;53.356;-1.748;2022-08-19T03:11:29;6.18;;;2.80;;
69256;SDS011;56376;53.356;-1.748;2022-08-19T03:13:56;6.47;;;2.20;;
69256;SDS011;56376;53.356;-1.748;2022-08-19T03:16:24;5.68;;;2.33;;
69256;SDS011;56376;53.356;-1.748;2022-08-19T03:18:52;6.72;;;1.65;;
69256;SDS011;56376;53.356;-1.748;2022-08-19T03:21:19;11.45;;;3.00;;
69256;SDS011;56376;53.356;-1.748;2022-08-19T03:23:46;8.52;;;2.53;;
69256;SDS011;56376;53.356;-1.748;2022-08-19T03:26:12;8.63;;;2.90;;
69256;SDS011;56376;53.356;-1.748;2022-08-19T03:28:40;11.95;;;3.17;;
69256;SDS011;56376;53.356;-1.748;2022-08-19T03:31:11;8.10;;;2.63;;
69256;SDS011;56376;53.356;-1.748;2022-08-19T03:33:39;6.20;;;2.53;;
69256;SDS011;56376;53.356;-1.748;2022-08-19T03:36:06;8.45;;;2.65;;
69256;SDS011;56376;53.356;-1.748;2022-08-19T03:38:43;6.85;;;2.33;;
69256;SDS011;56376;53.356;-1.748;2022-08-19T03:41:11;7.75;;;2.38;;
69256;SDS011;56376;53.356;-1.748;2022-08-19T03:43:42;6.00;;;2.25;;
69256;SDS011;56376;53.356;-1.748;2022-08-19T03:46:09;5.75;;;2.10;;
69256;SDS011;56376;53.356;-1.748;2022-08-19T03:48:37;7.78;;;2.38;;
69256;SDS011;56376;53.356;-1.748;2022-08-19T03:51:05;5.95;;;2.30;;
69256;SDS011;56376;53.356;-1.748;2022-08-19T03:53:31;4.40;;;1.98;;
69256;SDS011;56376;53.356;-1.748;2022-08-19T03:55:58;3.50;;;2.03;;
69256;SDS011;56376;53.356;-1.748;2022-08-19T03:58:28;3.50;;;1.73;;
69256;SDS011;56376;53.356;-1.748;2022-08-19T04:00:55;6.60;;;2.60;;
69256;SDS011;56376;53.356;-1.748;2022-08-19T04:03:22;7.60;;;2.88;;
69256;SDS011;56376;53.356;-1.748;2022-08-19T04:05:49;5.43;;;2.40;;
69256;SDS011;56376;53.356;-1.748;2022-08-19T04:08:15;9.80;;;2.90;;
69256;SDS011;56376;53.356;-1.748;2022-08-19T04:10:44;6.20;;;2.03;;
69256;SDS011;56376;53.356;-1.748;2022-08-19T04:13:09;6.75;;;2.58;;
69256;SDS011;56376;53.356;-1.748;2022-08-19T04:15:38;2.85;;;1.75;;
69256;SDS011;56376;53.356;-1.748;2022-08-19T04:18:06;5.13;;;2.00;;
69256;SDS011;56376;53.356;-1.748;2022-08-19T04:20:38;4.18;;;1.88;;
69256;SDS011;56376;53.356;-1.748;2022-08-19T04:23:07;5.40;;;2.08;;
69256;SDS011;56376;53.356;-1.748;2022-08-19T04:25:40;6.65;;;2.58;;
69256;SDS011;56376;53.356;-1.748;2022-08-19T04:28:07;4.88;;;2.50;;
69256;SDS011;56376;53.356;-1.748;2022-08-19T04:30:45;4.75;;;1.92;;
69256;SDS011;56376;53.356;-1.748;2022-08-19T04:33:13;2.25;;;1.77;;
69256;SDS011;56376;53.356;-1.748;2022-08-19T04:35:43;3.03;;;1.75;;
69256;SDS011;56376;53.356;-1.748;2022-08-19T04:38:11;3.97;;;1.50;;
69256;SDS011;56376;53.356;-1.748;2022-08-19T04:40:41;3.20;;;1.50;;
69256;SDS011;56376;53.356;-1.748;2022-08-19T04:43:26;5.45;;;1.67;;
69256;SDS011;56376;53.356;-1.748;2022-08-19T04:45:52;5.53;;;2.05;;
69256;SDS011;56376;53.356;-1.748;2022-08-19T04:48:18;4.10;;;1.73;;
69256;SDS011;56376;53.356;-1.748;2022-08-19T04:50:51;4.22;;;2.15;;
69256;SDS011;56376;53.356;-1.748;2022-08-19T04:53:22;3.35;;;1.65;;
69256;SDS011;56376;53.356;-1.748;2022-08-19T04:55:53;4.25;;;1.70;;
69256;SDS011;56376;53.356;-1.748;2022-08-19T04:58:23;3.25;;;1.60;;
69256;SDS011;56376;53.356;-1.748;2022-08-19T05:00:50;3.03;;;1.48;;
69256;SDS011;56376;53.356;-1.748;2022-08-19T05:03:16;4.30;;;1.88;;
69256;SDS011;56376;53.356;-1.748;2022-08-19T05:05:42;3.95;;;1.70;;
69256;SDS011;56376;53.356;-1.748;2022-08-19T05:08:08;3.70;;;1.50;;
69256;SDS011;56376;53.356;-1.748;2022-08-19T05:10:35;3.88;;;1.60;;
69256;SDS011;56376;53.356;-1.748;2022-08-19T05:13:02;3.20;;;1.58;;
69256;SDS011;56376;53.356;-1.748;2022-08-19T05:15:28;2.80;;;1.35;;
69256;SDS011;56376;53.356;-1.748;2022-08-19T05:17:53;3.55;;;1.52;;
69256;SDS011;56376;53.356;-1.748;2022-08-19T05:20:37;3.45;;;1.60;;
69256;SDS011;56376;53.356;-1.748;2022-08-19T05:23:22;2.30;;;1.40;;
69256;SDS011;56376;53.356;-1.748;2022-08-19T05:25:48;3.35;;;1.60;;
69256;SDS011;56376;53.356;-1.748;2022-08-19T05:28:15;3.55;;;1.58;;
69256;SDS011;56376;53.356;-1.748;2022-08-19T05:30:41;3.28;;;1.88;;
69256;SDS011;56376;53.356;-1.748;2022-08-19T05:33:08;2.03;;;1.40;;
69256;SDS011;56376;53.356;-1.748;2022-08-19T05:35:36;2.30;;;1.50;;
69256;SDS011;56376;53.356;-1.748;2022-08-19T05:38:02;4.10;;;1.60;;
69256;SDS011;56376;53.356;-1.748;2022-08-19T05:40:28;4.28;;;1.77;;
69256;SDS011;56376;53.356;-1.748;2022-08-19T05:42:53;3.50;;;1.90;;
69256;SDS011;56376;53.356;-1.748;2022-08-19T05:45:19;3.70;;;1.73;;
69256;SDS011;56376;53.356;-1.748;2022-08-19T05:47:46;4.88;;;1.80;;
69256;SDS011;56376;53.356;-1.748;2022-08-19T05:50:12;3.55;;;1.70;;
69256;SDS011;56376;53.356;-1.748;2022-08-19T05:52:38;3.78;;;2.03;;
69256;SDS011;56376;53.356;-1.748;2022-08-19T05:55:04;5.75;;;1.58;;
69256;SDS011;56376;53.356;-1.748;2022-08-19T05:57:30;5.38;;;2.03;;
69256;SDS011;56376;53.356;-1.748;2022-08-19T05:59:56;3.85;;;1.95;;
69256;SDS011;56376;53.356;-1.748;2022-08-19T06:02:22;4.97;;;2.13;;
69256;SDS011;56376;53.356;-1.748;2022-08-19T06:04:48;2.88;;;1.73;;
69256;SDS011;56376;53.356;-1.748;2022-08-19T06:07:14;5.15;;;1.83;;
69256;SDS011;56376;53.356;-1.748;2022-08-19T06:09:40;4.28;;;1.73;;
69256;SDS011;56376;53.356;-1.748;2022-08-19T06:12:06;5.07;;;2.40;;
69256;SDS011;56376;53.356;-1.748;2022-08-19T06:14:33;4.93;;;2.20;;
69256;SDS011;56376;53.356;-1.748;2022-08-19T06:17:00;7.22;;;2.30;;
69256;SDS011;56376;53.356;-1.748;2022-08-19T06:19:27;3.63;;;2.00;;
69256;SDS011;56376;53.356;-1.748;2022-08-19T06:21:55;5.13;;;2.20;;
69256;SDS011;56376;53.356;-1.748;2022-08-19T06:24:23;4.95;;;2.05;;
69256;SDS011;56376;53.356;-1.748;2022-08-19T06:26:50;3.92;;;1.88;;
69256;SDS011;56376;53.356;-1.748;2022-08-19T06:29:18;9.13;;;2.80;;
69256;SDS011;56376;53.356;-1.748;2022-08-19T06:31:46;4.47;;;2.30;;
69256;SDS011;56376;53.356;-1.748;2022-08-19T06:34:17;5.55;;;2.65;;
69256;SDS011;56376;53.356;-1.748;2022-08-19T06:36:44;5.25;;;1.92;;
69256;SDS011;56376;53.356;-1.748;2022-08-19T06:39:16;6.00;;;2.03;;
69256;SDS011;56376;53.356;-1.748;2022-08-19T06:41:44;5.35;;;1.90;;
69256;SDS011;56376;53.356;-1.748;2022-08-19T06:44:12;8.30;;;2.60;;
69256;SDS011;56376;53.356;-1.748;2022-08-19T06:46:38;8.00;;;2.53;;
69256;SDS011;56376;53.356;-1.748;2022-08-19T06:49:05;4.03;;;2.20;;
69256;SDS011;56376;53.356;-1.748;2022-08-19T06:51:31;6.85;;;2.33;;
69256;SDS011;56376;53.356;-1.748;2022-08-19T06:53:57;4.80;;;2.33;;
69256;SDS011;56376;53.356;-1.748;2022-08-19T06:56:24;5.75;;;1.85;;
69256;SDS011;56376;53.356;-1.748;2022-08-19T06:58:59;7.95;;;2.20;;
69256;SDS011;56376;53.356;-1.748;2022-08-19T07:01:37;4.88;;;2.63;;
69256;SDS011;56376;53.356;-1.748;2022-08-19T07:04:15;7.85;;;3.05;;
69256;SDS011;56376;53.356;-1.748;2022-08-19T07:06:43;6.82;;;2.53;;
69256;SDS011;56376;53.356;-1.748;2022-08-19T07:09:11;5.45;;;2.22;;
69256;SDS011;56376;53.356;-1.748;2022-08-19T07:11:38;6.43;;;2.63;;
69256;SDS011;56376;53.356;-1.748;2022-08-19T07:14:04;5.97;;;2.75;;
69256;SDS011;56376;53.356;-1.748;2022-08-19T07:16:31;5.47;;;2.47;;
69256;SDS011;56376;53.356;-1.748;2022-08-19T07:18:57;3.67;;;1.90;;
69256;SDS011;56376;53.356;-1.748;2022-08-19T07:21:28;7.22;;;2.85;;
69256;SDS011;56376;53.356;-1.748;2022-08-19T07:23:55;8.60;;;2.13;;
69256;SDS011;56376;53.356;-1.748;2022-08-19T07:26:29;4.55;;;1.90;;
69256;SDS011;56376;53.356;-1.748;2022-08-19T07:28:57;6.38;;;2.22;;
69256;SDS011;56376;53.356;-1.748;2022-08-19T07:31:24;5.03;;;2.50;;
69256;SDS011;56376;53.356;-1.748;2022-08-19T07:33:51;10.25;;;3.05;;
69256;SDS011;56376;53.356;-1.748;2022-08-19T07:36:20;7.10;;;2.45;;
69256;SDS011;56376;53.356;-1.748;2022-08-19T07:38:49;5.97;;;2.35;;
69256;SDS011;56376;53.356;-1.748;2022-08-19T07:41:25;6.25;;;2.10;;
69256;SDS011;56376;53.356;-1.748;2022-08-19T07:43:56;5.07;;;2.05;;
69256;SDS011;56376;53.356;-1.748;2022-08-19T07:46:24;8.05;;;2.30;;
69256;SDS011;56376;53.356;-1.748;2022-08-19T07:48:49;10.90;;;2.65;;
69256;SDS011;56376;53.356;-1.748;2022-08-19T07:51:18;6.05;;;2.83;;
69256;SDS011;56376;53.356;-1.748;2022-08-19T07:53:45;10.40;;;2.97;;
69256;SDS011;56376;53.356;-1.748;2022-08-19T07:56:13;8.75;;;2.45;;
69256;SDS011;56376;53.356;-1.748;2022-08-19T07:58:40;6.57;;;2.67;;
69256;SDS011;56376;53.356;-1.748;2022-08-19T08:01:07;6.68;;;2.92;;
69256;SDS011;56376;53.356;-1.748;2022-08-19T08:03:35;6.70;;;2.50;;
69256;SDS011;56376;53.356;-1.748;2022-08-19T08:06:19;4.97;;;2.33;;
69256;SDS011;56376;53.356;-1.748;2022-08-19T08:09:04;4.65;;;2.28;;
69256;SDS011;56376;53.356;-1.748;2022-08-19T08:11:40;8.20;;;2.58;;
69256;SDS011;56376;53.356;-1.748;2022-08-19T08:14:15;8.05;;;2.67;;
69256;SDS011;56376;53.356;-1.748;2022-08-19T08:16:47;8.87;;;2.93;;
69256;SDS011;56376;53.356;-1.748;2022-08-19T08:19:15;7.10;;;2.80;;
69256;SDS011;56376;53.356;-1.748;2022-08-19T08:21:41;6.57;;;2.60;;
69256;SDS011;56376;53.356;-1.748;2022-08-19T08:24:06;7.25;;;2.22;;
69256;SDS011;56376;53.356;-1.748;2022-08-19T08:26:32;6.93;;;2.70;;
69256;SDS011;56376;53.356;-1.748;2022-08-19T08:28:57;9.40;;;2.85;;
69256;SDS011;56376;53.356;-1.748;2022-08-19T08:31:22;6.40;;;2.53;;
69256;SDS011;56376;53.356;-1.748;2022-08-19T08:33:48;5.57;;;2.42;;
69256;SDS011;56376;53.356;-1.748;2022-08-19T08:36:14;9.27;;;2.28;;
69256;SDS011;56376;53.356;-1.748;2022-08-19T08:38:40;5.65;;;2.67;;
69256;SDS011;56376;53.356;-1.748;2022-08-19T08:43:44;5.00;;;2.13;;
69256;SDS011;56376;53.356;-1.748;2022-08-19T08:46:19;10.15;;;2.78;;
69256;SDS011;56376;53.356;-1.748;2022-08-19T08:51:36;4.60;;;2.20;;
69256;SDS011;56376;53.356;-1.748;2022-08-19T08:54:10;5.38;;;2.20;;
69256;SDS011;56376;53.356;-1.748;2022-08-19T08:56:43;4.78;;;2.38;;
69256;SDS011;56376;53.356;-1.748;2022-08-19T09:02:06;7.78;;;2.80;;
69256;SDS011;56376;53.356;-1.748;2022-08-19T09:04:36;6.10;;;2.42;;
69256;SDS011;56376;53.356;-1.748;2022-08-19T09:09:45;6.88;;;2.67;;
69256;SDS011;56376;53.356;-1.748;2022-08-19T09:15:10;4.95;;;2.30;;
69256;SDS011;56376;53.356;-1.748;2022-08-19T09:17:38;4.63;;;2.10;;
69256;SDS011;56376;53.356;-1.748;2022-08-19T09:22:38;6.28;;;2.28;;
69256;SDS011;56376;53.356;-1.748;2022-08-19T09:25:06;4.85;;;2.20;;
69256;SDS011;56376;53.356;-1.748;2022-08-19T09:27:33;5.00;;;1.98;;
69256;SDS011;56376;53.356;-1.748;2022-08-19T09:30:00;4.75;;;2.22;;
69256;SDS011;56376;53.356;-1.748;2022-08-19T09:32:26;5.95;;;2.53;;
69256;SDS011;56376;53.356;-1.748;2022-08-19T09:34:52;3.85;;;1.85;;
69256;SDS011;56376;53.356;-1.748;2022-08-19T09:37:23;4.40;;;1.92;;
69256;SDS011;56376;53.356;-1.748;2022-08-19T09:39:49;5.85;;;1.90;;
69256;SDS011;56376;53.356;-1.748;2022-08-19T09:42:15;4.75;;;2.08;;
69256;SDS011;56376;53.356;-1.748;2022-08-19T09:44:40;4.25;;;2.03;;
69256;SDS011;56376;53.356;-1.748;2022-08-19T09:47:07;4.82;;;2.17;;
69256;SDS011;56376;53.356;-1.748;2022-08-19T09:49:34;5.53;;;2.13;;
69256;SDS011;56376;53.356;-1.748;2022-08-19T09:51:59;4.07;;;1.80;;
69256;SDS011;56376;53.356;-1.748;2022-08-19T09:54:26;5.80;;;2.42;;
69256;SDS011;56376;53.356;-1.748;2022-08-19T09:56:52;5.57;;;2.40;;
69256;SDS011;56376;53.356;-1.748;2022-08-19T09:59:18;5.25;;;2.00;;
69256;SDS011;56376;53.356;-1.748;2022-08-19T10:01:44;5.10;;;2.63;;
69256;SDS011;56376;53.356;-1.748;2022-08-19T10:04:10;5.20;;;2.00;;
69256;SDS011;56376;53.356;-1.748;2022-08-19T10:06:37;3.75;;;1.73;;
69256;SDS011;56376;53.356;-1.748;2022-08-19T10:09:05;3.58;;;1.60;;
69256;SDS011;56376;53.356;-1.748;2022-08-19T10:11:33;4.57;;;2.17;;
69256;SDS011;56376;53.356;-1.748;2022-08-19T10:14:02;5.35;;;1.95;;
69256;SDS011;56376;53.356;-1.748;2022-08-19T10:16:30;3.97;;;1.60;;
69256;SDS011;56376;53.356;-1.748;2022-08-19T10:18:56;7.32;;;2.22;;
69256;SDS011;56376;53.356;-1.748;2022-08-19T10:21:23;4.82;;;1.80;;
69256;SDS011;56376;53.356;-1.748;2022-08-19T10:23:52;5.70;;;2.35;;
69256;SDS011;56376;53.356;-1.748;2022-08-19T10:26:22;5.38;;;2.20;;
69256;SDS011;56376;53.356;-1.748;2022-08-19T10:28:52;3.92;;;1.85;;
69256;SDS011;56376;53.356;-1.748;2022-08-19T10:31:20;3.20;;;1.55;;
69256;SDS011;56376;53.356;-1.748;2022-08-19T10:33:48;4.22;;;1.83;;
69256;SDS011;56376;53.356;-1.748;2022-08-19T10:36:19;5.28;;;2.15;;
69256;SDS011;56376;53.356;-1.748;2022-08-19T10:38:48;5.00;;;1.95;;
69256;SDS011;56376;53.356;-1.748;2022-08-19T10:41:19;6.07;;;2.35;;
69256;SDS011;56376;53.356;-1.748;2022-08-19T10:43:49;5.10;;;2.03;;
69256;SDS011;56376;53.356;-1.748;2022-08-19T10:46:17;4.70;;;2.00;;
69256;SDS011;56376;53.356;-1.748;2022-08-19T10:48:44;6.70;;;2.40;;
69256;SDS011;56376;53.356;-1.748;2022-08-19T10:51:10;4.63;;;2.10;;
69256;SDS011;56376;53.356;-1.748;2022-08-19T10:53:54;5.78;;;1.90;;
69256;SDS011;56376;53.356;-1.748;2022-08-19T10:56:20;4.60;;;1.88;;
69256;SDS011;56376;53.356;-1.748;2022-08-19T10:59:05;4.25;;;2.10;;
69256;SDS011;56376;53.356;-1.748;2022-08-19T11:01:31;5.63;;;2.28;;
69256;SDS011;56376;53.356;-1.748;2022-08-19T11:03:59;3.55;;;1.80;;
69256;SDS011;56376;53.356;-1.748;2022-08-19T11:06:25;4.45;;;1.83;;
69256;SDS011;56376;53.356;-1.748;2022-08-19T11:08:54;2.30;;;1.30;;
69256;SDS011;56376;53.356;-1.748;2022-08-19T11:11:20;3.80;;;1.63;;
69256;SDS011;56376;53.356;-1.748;2022-08-19T11:13:47;4.45;;;1.90;;
69256;SDS011;56376;53.356;-1.748;2022-08-19T11:16:19;4.28;;;1.70;;
69256;SDS011;56376;53.356;-1.748;2022-08-19T11:18:50;2.85;;;1.83;;
69256;SDS011;56376;53.356;-1.748;2022-08-19T11:21:20;4.20;;;1.80;;
69256;SDS011;56376;53.356;-1.748;2022-08-19T11:23:52;5.47;;;1.65;;
69256;SDS011;56376;53.356;-1.748;2022-08-19T11:26:20;2.90;;;1.45;;
69256;SDS011;56376;53.356;-1.748;2022-08-19T11:28:47;5.82;;;1.73;;
69256;SDS011;56376;53.356;-1.748;2022-08-19T11:31:17;5.45;;;1.80;;
69256;SDS011;56376;53.356;-1.748;2022-08-19T11:33:44;5.38;;;1.80;;
69256;SDS011;56376;53.356;-1.748;2022-08-19T11:36:11;2.30;;;1.42;;
69256;SDS011;56376;53.356;-1.748;2022-08-19T11:38:37;2.53;;;1.52;;
69256;SDS011;56376;53.356;-1.748;2022-08-19T11:41:05;4.45;;;2.13;;
69256;SDS011;56376;53.356;-1.748;2022-08-19T11:43:35;5.43;;;2.35;;
69256;SDS011;56376;53.356;-1.748;2022-08-19T11:46:05;3.60;;;1.92;;
69256;SDS011;56376;53.356;-1.748;2022-08-19T11:48:35;5.53;;;2.03;;
69256;SDS011;56376;53.356;-1.748;2022-08-19T11:51:03;4.75;;;1.73;;
69256;SDS011;56376;53.356;-1.748;2022-08-19T11:53:31;4.10;;;1.60;;
69256;SDS011;56376;53.356;-1.748;2022-08-19T11:55:57;3.75;;;1.67;;
69256;SDS011;56376;53.356;-1.748;2022-08-19T11:58:23;3.97;;;1.75;;
69256;SDS011;56376;53.356;-1.748;2022-08-19T12:00:50;6.20;;;1.92;;
69256;SDS011;56376;53.356;-1.748;2022-08-19T12:03:16;4.00;;;1.85;;
69256;SDS011;56376;53.356;-1.748;2022-08-19T12:05:41;3.28;;;1.50;;
69256;SDS011;56376;53.356;-1.748;2022-08-19T12:08:07;6.15;;;1.70;;
69256;SDS011;56376;53.356;-1.748;2022-08-19T12:10:33;4.35;;;1.63;;
69256;SDS011;56376;53.356;-1.748;2022-08-19T12:12:59;6.05;;;2.35;;
69256;SDS011;56376;53.356;-1.748;2022-08-19T12:15:26;5.28;;;2.47;;
69256;SDS011;56376;53.356;-1.748;2022-08-19T12:17:53;4.22;;;1.70;;
69256;SDS011;56376;53.356;-1.748;2022-08-19T12:20:21;4.43;;;1.58;;
69256;SDS011;56376;53.356;-1.748;2022-08-19T12:22:48;4.63;;;1.50;;
69256;SDS011;56376;53.356;-1.748;2022-08-19T12:25:13;1.23;;;0.98;;
69256;SDS011;56376;53.356;-1.748;2022-08-19T12:27:39;2.08;;;1.08;;
69256;SDS011;56376;53.356;-1.748;2022-08-19T12:30:05;1.58;;;0.88;;
69256;SDS011;56376;53.356;-1.748;2022-08-19T12:32:33;2.60;;;1.10;;
69256;SDS011;56376;53.356;-1.748;2022-08-19T12:34:58;1.80;;;1.00;;
69256;SDS011;56376;53.356;-1.748;2022-08-19T12:37:24;3.15;;;0.90;;
69256;SDS011;56376;53.356;-1.748;2022-08-19T12:39:49;2.40;;;1.40;;
69256;SDS011;56376;53.356;-1.748;2022-08-19T12:42:15;3.08;;;1.20;;
69256;SDS011;56376;53.356;-1.748;2022-08-19T12:44:41;1.13;;;0.85;;
69256;SDS011;56376;53.356;-1.748;2022-08-19T12:47:08;1.63;;;0.82;;
69256;SDS011;56376;53.356;-1.748;2022-08-19T12:49:35;1.88;;;0.90;;
69256;SDS011;56376;53.356;-1.748;2022-08-19T12:52:04;1.60;;;0.90;;
69256;SDS011;56376;53.356;-1.748;2022-08-19T12:54:35;1.98;;;0.77;;
69256;SDS011;56376;53.356;-1.748;2022-08-19T12:57:06;2.10;;;0.85;;
69256;SDS011;56376;53.356;-1.748;2022-08-19T12:59:33;1.42;;;0.80;;
69256;SDS011;56376;53.356;-1.748;2022-08-19T13:02:02;1.17;;;0.85;;
69256;SDS011;56376;53.356;-1.748;2022-08-19T13:04:29;1.63;;;0.95;;
69256;SDS011;56376;53.356;-1.748;2022-08-19T13:06:55;2.08;;;0.98;;
69256;SDS011;56376;53.356;-1.748;2022-08-19T13:09:20;1.58;;;0.65;;
69256;SDS011;56376;53.356;-1.748;2022-08-19T13:11:46;1.42;;;0.98;;
69256;SDS011;56376;53.356;-1.748;2022-08-19T13:14:11;2.15;;;0.88;;
69256;SDS011;56376;53.356;-1.748;2022-08-19T13:16:36;2.05;;;0.85;;
69256;SDS011;56376;53.356;-1.748;2022-08-19T13:19:02;2.53;;;0.90;;
69256;SDS011;56376;53.356;-1.748;2022-08-19T13:21:30;1.17;;;0.57;;
69256;SDS011;56376;53.356;-1.748;2022-08-19T13:23:56;1.75;;;0.90;;
69256;SDS011;56376;53.356;-1.748;2022-08-19T13:26:23;0.85;;;0.50;;
69256;SDS011;56376;53.356;-1.748;2022-08-19T13:28:48;2.25;;;0.82;;
69256;SDS011;56376;53.356;-1.748;2022-08-19T13:34:18;1.38;;;0.90;;
69256;SDS011;56376;53.356;-1.748;2022-08-19T13:36:51;1.23;;;0.70;;
69256;SDS011;56376;53.356;-1.748;2022-08-19T13:39:18;1.67;;;0.65;;
69256;SDS011;56376;53.356;-1.748;2022-08-19T13:41:45;1.35;;;0.52;;
69256;SDS011;56376;53.356;-1.748;2022-08-19T13:44:14;1.35;;;0.70;;
69256;SDS011;56376;53.356;-1.748;2022-08-19T13:46:40;1.50;;;0.70;;
69256;SDS011;56376;53.356;-1.748;2022-08-19T13:49:13;1.15;;;0.82;;
69256;SDS011;56376;53.356;-1.748;2022-08-19T13:51:51;1.25;;;0.90;;
69256;SDS011;56376;53.356;-1.748;2022-08-19T13:54:28;12.93;;;3.47;;
69256;SDS011;56376;53.356;-1.748;2022-08-19T13:56:53;18.17;;;4.88;;
69256;SDS011;56376;53.356;-1.748;2022-08-19T13:59:18;7.05;;;3.75;;
69256;SDS011;56376;53.356;-1.748;2022-08-19T14:01:44;4.78;;;2.40;;
69256;SDS011;56376;53.356;-1.748;2022-08-19T14:04:10;2.75;;;1.48;;
69256;SDS011;56376;53.356;-1.748;2022-08-19T14:06:35;2.03;;;1.23;;
69256;SDS011;56376;53.356;-1.748;2022-08-19T14:09:01;2.45;;;1.00;;
69256;SDS011;56376;53.356;-1.748;2022-08-19T14:11:27;3.50;;;1.10;;
69256;SDS011;56376;53.356;-1.748;2022-08-19T14:13:53;1.88;;;0.93;;
69256;SDS011;56376;53.356;-1.748;2022-08-19T14:16:18;1.48;;;0.77;;
69256;SDS011;56376;53.356;-1.748;2022-08-19T14:18:44;2.95;;;1.10;;
69256;SDS011;56376;53.356;-1.748;2022-08-19T14:21:14;1.95;;;1.00;;
69256;SDS011;56376;53.356;-1.748;2022-08-19T14:23:42;2.22;;;0.90;;
69256;SDS011;56376;53.356;-1.748;2022-08-19T14:26:12;2.25;;;0.95;;
69256;SDS011;56376;53.356;-1.748;2022-08-19T14:28:40;2.13;;;0.90;;
69256;SDS011;56376;53.356;-1.748;2022-08-19T14:31:07;4.22;;;0.95;;
69256;SDS011;56376;53.356;-1.748;2022-08-19T14:33:33;4.10;;;2.30;;
69256;SDS011;56376;53.356;-1.748;2022-08-19T14:35:59;12.82;;;6.13;;
69256;SDS011;56376;53.356;-1.748;2022-08-19T14:38:25;8.15;;;4.35;;
69256;SDS011;56376;53.356;-1.748;2022-08-19T14:40:51;5.28;;;3.28;;
69256;SDS011;56376;53.356;-1.748;2022-08-19T14:43:17;4.05;;;2.25;;
69256;SDS011;56376;53.356;-1.748;2022-08-19T14:45:43;2.10;;;1.40;;
69256;SDS011;56376;53.356;-1.748;2022-08-19T14:48:10;3.10;;;1.17;;
69256;SDS011;56376;53.356;-1.748;2022-08-19T14:50:36;1.27;;;0.90;;
69256;SDS011;56376;53.356;-1.748;2022-08-19T14:53:08;1.17;;;0.70;;
69256;SDS011;56376;53.356;-1.748;2022-08-19T14:55:33;1.38;;;0.77;;
69256;SDS011;56376;53.356;-1.748;2022-08-19T14:57:59;1.38;;;0.70;;